City Of Joliet — WDC2653 — position and weather

sailwx.info

Track history (hours):
 
Tides and Currents Weather Stations Pressure Air Temp Water Temp Dewpoint Dewpoint Depression Visibility Wind Speed Wind Dir Waves Ship Positions

City Of Joliet

Owner: Kirby Inland Marine LP, Houston, TX. More information available from US FCC via Universal Licensing System and Coast Guard Vessel Documentation Center.

Last reported at 2018-May-11 14:23 UTC. Time now 2018-Jun-20 08:55 UTC.
Position N 39°08' W 090°37'.
Warning: this ship's position is 39 days out of date.

Length 231 m; draft 2.7 m.

Type: . MMSI: 365947464.

Date/timePositionNaut miles runAvg speedWind from/ knotsBaromVisibWave heightAir tempDewpointWater temp
2018-May-11 14:23N 39°08' W 090°37'2 3.8
2018-May-11 13:55N 39°06' W 090°36'2 4.0
2018-May-11 13:30N 39°04' W 090°35'2 3.2
2018-May-11 12:59N 39°03' W 090°35'2 3.6
2018-May-11 12:26N 39°01' W 090°35'2 4.2
2018-May-11 12:00N 38°59' W 090°34'2 4.2
2018-May-11 11:30N 38°58' W 090°32'2 3.3
2018-May-11 11:00N 38°58' W 090°30'0 0.3
2018-May-11 10:30N 38°58' W 090°30'2 3.6
2018-May-11 10:00N 38°58' W 090°28'2 3.3
2018-May-11 09:30N 38°58' W 090°26'2 3.5
2018-May-11 09:00N 38°58' W 090°23'2 3.7
2018-May-11 08:30N 38°57' W 090°21'2 3.7
2018-May-11 08:00N 38°56' W 090°19'2 3.6
2018-May-11 07:30N 38°55' W 090°17'2 3.5
2018-May-11 07:00N 38°55' W 090°15'2 3.0
2018-May-11 06:30N 38°54' W 090°13'2 3.4
2018-May-11 06:00N 38°53' W 090°12'2 3.1
2018-May-11 05:30N 38°53' W 090°10'1 1.8
2018-May-11 05:00N 38°52' W 090°09'1 1.1
2018-May-11 04:30N 38°52' W 090°08'1 1.4
2018-May-11 04:00N 38°51' W 090°08'0 0.0
2018-May-11 03:27N 38°51' W 090°08'0 0.0
2018-May-11 02:51N 38°51' W 090°08'0 0.0
2018-May-11 02:22N 38°51' W 090°08'0 0.0
2018-May-11 02:00N 38°51' W 090°08'0 0.0
2018-May-11 01:30N 38°51' W 090°08'0 0.0
2018-May-11 01:00N 38°51' W 090°08'0 0.0
2018-May-10 21:44N 38°51' W 090°08'0 0.0
2018-May-10 21:28N 38°51' W 090°08'0 0.0
2018-May-10 19:32N 38°51' W 090°08'0 0.0
2018-May-10 19:30N 38°51' W 090°08'0 0.0
2018-May-10 18:01N 38°51' W 090°08'0 0.0
2018-May-10 17:59N 38°51' W 090°08'0 0.0
2018-May-10 17:08N 38°51' W 090°08'0 0.0
2018-May-10 17:00N 38°51' W 090°08'0 0.0
2018-May-10 16:30N 38°51' W 090°08'0 0.1
2018-May-10 16:00N 38°51' W 090°08'0 0.1
2018-May-10 15:30N 38°51' W 090°08'0 0.0
2018-May-10 15:00N 38°51' W 090°08'0 0.0
2018-May-10 14:30N 38°51' W 090°08'0 0.2
2018-May-10 14:00N 38°51' W 090°08'0 0.0
2018-May-10 13:30N 38°51' W 090°08'0 0.0
2018-May-10 13:00N 38°51' W 090°08'0 0.0
2018-May-10 12:30N 38°51' W 090°08'0 0.0
2018-May-10 12:00N 38°51' W 090°08'0 0.0
2018-May-10 11:29N 38°51' W 090°08'0 0.0
2018-May-10 11:00N 38°51' W 090°08'0 0.0
2018-May-10 10:30N 38°51' W 090°08'0 0.0
2018-May-10 10:00N 38°51' W 090°08'0 0.0
2018-May-10 09:30N 38°51' W 090°08'0 0.1
2018-May-10 09:00N 38°51' W 090°08'0 0.0
2018-May-10 08:30N 38°51' W 090°08'0 0.0
2018-May-10 08:00N 38°51' W 090°08'0 0.0
2018-May-10 07:30N 38°51' W 090°08'0 0.0
2018-May-10 07:00N 38°51' W 090°08'0 0.0
2018-May-10 06:30N 38°51' W 090°08'0 0.5
2018-May-10 06:00N 38°51' W 090°08'0 0.0
2018-May-10 05:30N 38°51' W 090°08'0 0.0
2018-May-10 05:00N 38°51' W 090°08'0 0.0
2018-May-10 04:30N 38°51' W 090°08'0 0.5
2018-May-10 03:59N 38°51' W 090°08'0 0.6
2018-May-10 03:31N 38°51' W 090°07'0 0.0
2018-May-10 03:00N 38°51' W 090°07'0 0.0
2018-May-10 02:30N 38°51' W 090°07'0 0.0
2018-May-10 02:00N 38°51' W 090°07'0 0.1
2018-May-10 01:30N 38°51' W 090°07'0 0.0
2018-May-10 01:00N 38°51' W 090°07'0 0.1
2018-May-10 00:30N 38°51' W 090°07'1 1.2
2018-May-10 00:00N 38°51' W 090°07'1 2.8
2018-May-09 23:30N 38°50' W 090°07'1 2.1
2018-May-09 23:00N 38°49' W 090°07'  
2018-May-02 17:29N 32°36' W 091°08'2 3.9
2018-May-02 17:00N 32°34' W 091°07'7 3.8
2018-May-02 15:16N 32°28' W 091°06'1 4.6
2018-May-02 15:00N 32°27' W 091°05'2 4.1
2018-May-02 14:30N 32°26' W 091°02'3 5.1
2018-May-02 13:59N 32°25' W 090°60'2 4.2
2018-May-02 13:30N 32°23' W 091°00'2 3.4
2018-May-02 13:00N 32°21' W 090°59'2 4.2
2018-May-02 12:30N 32°21' W 090°57'1 2.5
2018-May-02 12:00N 32°21' W 090°56'0 0.5
2018-May-02 11:30N 32°21' W 090°55'0 0.0
2018-May-02 11:00N 32°21' W 090°55'0 0.0
2018-May-02 10:30N 32°21' W 090°55'0 0.0
2018-May-02 10:00N 32°21' W 090°55'0 0.0
2018-May-02 09:30N 32°21' W 090°55'0 0.2
2018-May-02 09:00N 32°21' W 090°55'1 2.4
2018-May-02 08:30N 32°20' W 090°54'2 3.8
2018-May-02 08:00N 32°18' W 090°55'2 3.4
2018-May-02 07:30N 32°17' W 090°57'2 3.6
2018-May-02 07:00N 32°15' W 090°58'2 4.7
2018-May-02 06:30N 32°13' W 090°59'2 4.4
2018-May-02 06:00N 32°11' W 090°60'2 3.9
2018-May-02 05:30N 32°09' W 090°60'2 3.4
2018-May-02 05:00N 32°08' W 091°01'2 3.4
2018-May-02 04:30N 32°07' W 091°03'2 3.9
2018-May-02 04:00N 32°08' W 091°05'5 3.6
2018-May-02 02:36N 32°03' W 091°04'0 4.0
2018-May-02 02:30N 32°03' W 091°04'1 1.8
2018-May-02 01:56N 32°02' W 091°04'4 3.3
2018-May-02 00:44N 31°59' W 091°08'  
Track history (hours):
 
Tides and Currents Weather Stations Pressure Air Temp Water Temp Dewpoint Dewpoint Depression Visibility Wind Speed Wind Dir Waves Ship Positions

City Of Joliet

Owner: Kirby Inland Marine LP, Houston, TX. More information available from US FCC via Universal Licensing System and Coast Guard Vessel Documentation Center.

Last reported at 2018-May-11 14:23 UTC. Time now 2018-Jun-20 08:55 UTC.
Position N 39°08' W 090°37'.
Warning: this ship's position is 39 days out of date.

Length 231 m; draft 2.7 m.

Type: . MMSI: 365947464.

Date/timePositionNaut miles runAvg speedWind from/ knotsBaromVisibWave heightAir tempDewpointWater temp
2018-May-11 14:23N 39°08' W 090°37'2 3.8
2018-May-11 13:55N 39°06' W 090°36'2 4.0
2018-May-11 13:30N 39°04' W 090°35'2 3.2
2018-May-11 12:59N 39°03' W 090°35'2 3.6
2018-May-11 12:26N 39°01' W 090°35'2 4.2
2018-May-11 12:00N 38°59' W 090°34'2 4.2
2018-May-11 11:30N 38°58' W 090°32'2 3.3
2018-May-11 11:00N 38°58' W 090°30'0 0.3
2018-May-11 10:30N 38°58' W 090°30'2 3.6
2018-May-11 10:00N 38°58' W 090°28'2 3.3
2018-May-11 09:30N 38°58' W 090°26'2 3.5
2018-May-11 09:00N 38°58' W 090°23'2 3.7
2018-May-11 08:30N 38°57' W 090°21'2 3.7
2018-May-11 08:00N 38°56' W 090°19'2 3.6
2018-May-11 07:30N 38°55' W 090°17'2 3.5
2018-May-11 07:00N 38°55' W 090°15'2 3.0
2018-May-11 06:30N 38°54' W 090°13'2 3.4
2018-May-11 06:00N 38°53' W 090°12'2 3.1
2018-May-11 05:30N 38°53' W 090°10'1 1.8
2018-May-11 05:00N 38°52' W 090°09'1 1.1
2018-May-11 04:30N 38°52' W 090°08'1 1.4
2018-May-11 04:00N 38°51' W 090°08'0 0.0
2018-May-11 03:27N 38°51' W 090°08'0 0.0
2018-May-11 02:51N 38°51' W 090°08'0 0.0
2018-May-11 02:22N 38°51' W 090°08'0 0.0
2018-May-11 02:00N 38°51' W 090°08'0 0.0
2018-May-11 01:30N 38°51' W 090°08'0 0.0
2018-May-11 01:00N 38°51' W 090°08'0 0.0
2018-May-10 21:44N 38°51' W 090°08'0 0.0
2018-May-10 21:28N 38°51' W 090°08'0 0.0
2018-May-10 19:32N 38°51' W 090°08'0 0.0
2018-May-10 19:30N 38°51' W 090°08'0 0.0
2018-May-10 18:01N 38°51' W 090°08'0 0.0
2018-May-10 17:59N 38°51' W 090°08'0 0.0
2018-May-10 17:08N 38°51' W 090°08'0 0.0
2018-May-10 17:00N 38°51' W 090°08'0 0.0
2018-May-10 16:30N 38°51' W 090°08'0 0.1
2018-May-10 16:00N 38°51' W 090°08'0 0.1
2018-May-10 15:30N 38°51' W 090°08'0 0.0
2018-May-10 15:00N 38°51' W 090°08'0 0.0
2018-May-10 14:30N 38°51' W 090°08'0 0.2
2018-May-10 14:00N 38°51' W 090°08'0 0.0
2018-May-10 13:30N 38°51' W 090°08'0 0.0
2018-May-10 13:00N 38°51' W 090°08'0 0.0
2018-May-10 12:30N 38°51' W 090°08'0 0.0
2018-May-10 12:00N 38°51' W 090°08'0 0.0
2018-May-10 11:29N 38°51' W 090°08'0 0.0
2018-May-10 11:00N 38°51' W 090°08'0 0.0
2018-May-10 10:30N 38°51' W 090°08'0 0.0
2018-May-10 10:00N 38°51' W 090°08'0 0.0
2018-May-10 09:30N 38°51' W 090°08'0 0.1
2018-May-10 09:00N 38°51' W 090°08'0 0.0
2018-May-10 08:30N 38°51' W 090°08'0 0.0
2018-May-10 08:00N 38°51' W 090°08'0 0.0
2018-May-10 07:30N 38°51' W 090°08'0 0.0
2018-May-10 07:00N 38°51' W 090°08'0 0.0
2018-May-10 06:30N 38°51' W 090°08'0 0.5
2018-May-10 06:00N 38°51' W 090°08'0 0.0
2018-May-10 05:30N 38°51' W 090°08'0 0.0
2018-May-10 05:00N 38°51' W 090°08'0 0.0
2018-May-10 04:30N 38°51' W 090°08'0 0.5
2018-May-10 03:59N 38°51' W 090°08'0 0.6
2018-May-10 03:31N 38°51' W 090°07'0 0.0
2018-May-10 03:00N 38°51' W 090°07'0 0.0
2018-May-10 02:30N 38°51' W 090°07'0 0.0
2018-May-10 02:00N 38°51' W 090°07'0 0.1
2018-May-10 01:30N 38°51' W 090°07'0 0.0
2018-May-10 01:00N 38°51' W 090°07'0 0.1
2018-May-10 00:30N 38°51' W 090°07'1 1.2
2018-May-10 00:00N 38°51' W 090°07'1 2.8
2018-May-09 23:30N 38°50' W 090°07'1 2.1
2018-May-09 23:00N 38°49' W 090°07'  
2018-May-02 17:29N 32°36' W 091°08'2 3.9
2018-May-02 17:00N 32°34' W 091°07'7 3.8
2018-May-02 15:16N 32°28' W 091°06'1 4.6
2018-May-02 15:00N 32°27' W 091°05'2 4.1
2018-May-02 14:30N 32°26' W 091°02'3 5.1
2018-May-02 13:59N 32°25' W 090°60'2 4.2
2018-May-02 13:30N 32°23' W 091°00'2 3.4
2018-May-02 13:00N 32°21' W 090°59'2 4.2
2018-May-02 12:30N 32°21' W 090°57'1 2.5
2018-May-02 12:00N 32°21' W 090°56'0 0.5
2018-May-02 11:30N 32°21' W 090°55'0 0.0
2018-May-02 11:00N 32°21' W 090°55'0 0.0
2018-May-02 10:30N 32°21' W 090°55'0 0.0
2018-May-02 10:00N 32°21' W 090°55'0 0.0
2018-May-02 09:30N 32°21' W 090°55'0 0.2
2018-May-02 09:00N 32°21' W 090°55'1 2.4
2018-May-02 08:30N 32°20' W 090°54'2 3.8
2018-May-02 08:00N 32°18' W 090°55'2 3.4
2018-May-02 07:30N 32°17' W 090°57'2 3.6
2018-May-02 07:00N 32°15' W 090°58'2 4.7
2018-May-02 06:30N 32°13' W 090°59'2 4.4
2018-May-02 06:00N 32°11' W 090°60'2 3.9
2018-May-02 05:30N 32°09' W 090°60'2 3.4
2018-May-02 05:00N 32°08' W 091°01'2 3.4
2018-May-02 04:30N 32°07' W 091°03'2 3.9
2018-May-02 04:00N 32°08' W 091°05'5 3.6
2018-May-02 02:36N 32°03' W 091°04'0 4.0
2018-May-02 02:30N 32°03' W 091°04'1 1.8
2018-May-02 01:56N 32°02' W 091°04'4 3.3
2018-May-02 00:44N 31°59' W 091°08'  

Dump ship's entire track history